Time;durP1;ratioP1;P1;durP2;ratioP2;P2;SDS_P1;SDS_P2;PMS_P1;PMS_P2;Temp;Humidity;BMP_temperature;BMP_pressure;BME280_temperature;BME280_humidity;BME280_pressure;Samples;Min_cycle;Max_cycle;Signal;HPM_P1;HPM_P2
2023/09/24 00:00:25;;;;;;;16.80;6.68;;;11.80;99.90;;;;;;6184030;23;20019;-85
2023/09/24 00:03:10;;;;;;;28.85;8.13;;;11.80;99.90;;;;;;6183195;23;20432;-84
2023/09/24 00:05:38;;;;;;;;;;;11.90;99.90;;;;;;6183721;23;20044;-84
2023/09/24 00:08:17;;;;;;;38.85;9.45;;;11.40;99.90;;;;;;6180784;23;20380;-84
2023/09/24 00:11:05;;;;;;;26.27;8.82;;;10.60;99.90;;;;;;6183114;23;20045;-84
2023/09/24 00:13:34;;;;;;;34.80;10.50;;;10.60;99.90;;;;;;6182670;23;20025;-84
2023/09/24 00:16:19;;;;;;;34.00;10.35;;;11.80;99.90;;;;;;6183412;23;20446;-85
2023/09/24 00:19:06;;;;;;;24.27;9.38;;;10.80;99.90;;;;;;6182934;23;20020;-84
2023/09/24 00:21:31;;;;;;;28.80;11.73;;;10.90;99.90;;;;;;6183056;23;20476;-84
2023/09/24 00:24:10;;;;;;;30.05;11.80;;;12.30;99.90;;;;;;6182619;23;20028;-84
2023/09/24 00:26:36;;;;;;;27.63;11.15;;;11.20;99.90;;;;;;6182106;23;20438;-84
2023/09/24 00:29:03;;;;;;;25.60;11.00;;;11.80;99.90;;;;;;6183304;23;20040;-84
2023/09/24 00:31:44;;;;;;;26.45;11.05;;;11.10;99.90;;;;;;6185029;23;20458;-84
2023/09/24 00:34:09;;;;;;;28.17;10.68;;;11.00;99.90;;;;;;6190225;23;20334;-84
2023/09/24 00:36:57;;;;;;;25.60;10.50;;;11.00;99.90;;;;;;6183423;23;20020;-85
2023/09/24 00:39:23;;;;;;;28.60;11.50;;;12.50;99.90;;;;;;6183806;23;20017;-85
2023/09/24 00:42:10;;;;;;;25.30;11.07;;;11.00;99.90;;;;;;6181503;23;20020;-84
2023/09/24 00:44:36;;;;;;;26.08;10.88;;;12.00;99.90;;;;;;6183061;23;20055;-84
2023/09/24 00:47:02;;;;;;;28.02;12.27;;;12.20;99.90;;;;;;6182374;23;20017;-84
2023/09/24 00:49:47;;;;;;;32.42;12.05;;;11.00;99.90;;;;;;6183196;23;20370;-84
2023/09/24 00:52:13;;;;;;;39.25;13.30;;;10.90;99.90;;;;;;6183044;23;20382;-84
2023/09/24 00:54:58;;;;;;;35.38;12.57;;;11.40;99.90;;;;;;6181487;23;20501;-84
2023/09/24 00:57:49;;;;;;;32.40;13.15;;;11.10;99.90;;;;;;6183561;23;20024;-84
2023/09/24 01:00:17;;;;;;;33.60;13.95;;;10.90;99.90;;;;;;6182993;23;20017;-85
2023/09/24 01:03:06;;;;;;;37.13;13.80;;;11.20;99.90;;;;;;6181750;23;20100;-84
2023/09/24 01:05:50;;;;;;;38.50;13.68;;;11.20;99.90;;;;;;6183370;23;20048;-84
2023/09/24 01:08:19;;;;;;;33.08;13.20;;;12.20;99.90;;;;;;6183020;23;20100;-85
2023/09/24 01:11:05;;;;;;;43.97;14.50;;;12.60;99.90;;;;;;6184620;23;20106;-84
2023/09/24 01:13:56;;;;;;;35.85;13.40;;;11.50;99.90;;;;;;6186547;23;20016;-84
2023/09/24 01:16:38;;;;;;;28.90;11.77;;;11.10;99.90;;;;;;6187091;23;20062;-84
2023/09/24 01:19:05;;;;;;;46.30;13.38;;;12.50;99.90;;;;;;6189514;23;20167;-84
2023/09/24 01:21:53;;;;;;;179.18;15.95;;;12.60;99.90;;;;;;6188961;23;20028;-84
2023/09/24 01:24:19;;;;;;;171.48;15.30;;;10.70;99.90;;;;;;6188411;23;20071;-84
2023/09/24 01:27:03;;;;;;;90.50;11.43;;;12.10;99.90;;;;;;6188390;23;20027;-84
2023/09/24 01:29:47;;;;;;;100.63;12.40;;;12.20;99.90;;;;;;6188826;23;20520;-84
2023/09/24 01:32:13;;;;;;;147.55;12.27;;;11.20;99.90;;;;;;6189131;23;20016;-85
2023/09/24 01:34:38;;;;;;;135.90;12.65;;;11.20;99.90;;;;;;6189209;23;20017;-84
2023/09/24 01:37:14;;;;;;;128.32;12.20;;;12.50;99.90;;;;;;6188339;23;20023;-84
2023/09/24 01:39:40;;;;;;;89.88;10.23;;;12.40;99.90;;;;;;6189309;23;20349;-85
2023/09/24 01:42:27;;;;;;;160.95;12.27;;;12.60;99.90;;;;;;6188661;23;20020;-84
2023/09/24 01:44:54;;;;;;;105.88;10.80;;;11.10;99.90;;;;;;6188187;23;20441;-85
2023/09/24 01:47:25;;;;;;;109.63;10.95;;;12.50;99.90;;;;;;6189509;23;20507;-85
2023/09/24 01:49:51;;;;;;;108.75;12.73;;;11.90;99.90;;;;;;6189196;23;20052;-84
2023/09/24 01:52:26;;;;;;;105.80;10.75;;;11.10;99.90;;;;;;6188505;23;20392;-85
2023/09/24 01:54:52;;;;;;;81.75;9.80;;;11.90;99.90;;;;;;6189084;23;20024;-85
2023/09/24 01:57:36;;;;;;;57.45;8.15;;;10.60;99.90;;;;;;6188987;23;20341;-84
2023/09/24 02:00:07;;;;;;;49.05;8.45;;;11.80;99.90;;;;;;6189957;23;20059;-84
2023/09/24 02:02:46;;;;;;;67.25;10.15;;;11.20;99.90;;;;;;6164648;23;20016;-84
2023/09/24 02:05:23;;;;;;;79.43;9.88;;;12.50;99.90;;;;;;6188091;23;20024;-84
2023/09/24 02:07:49;;;;;;;116.80;10.60;;;11.20;99.90;;;;;;6189234;23;20013;-84
2023/09/24 02:10:18;;;;;;;116.18;10.75;;;12.10;99.90;;;;;;6189503;23;20016;-84
2023/09/24 02:13:00;;;;;;;66.35;9.13;;;11.20;99.90;;;;;;6182980;23;20059;-84
2023/09/24 02:15:26;;;;;;;63.35;9.13;;;11.20;99.90;;;;;;6184326;23;20450;-84
2023/09/24 02:17:52;;;;;;;83.32;9.82;;;12.60;99.90;;;;;;6184168;23;20473;-84
2023/09/24 02:20:27;;;;;;;93.47;10.13;;;11.20;99.90;;;;;;6183208;23;20017;-84
2023/09/24 02:22:56;;;;;;;82.70;9.65;;;11.80;99.90;;;;;;6184188;23;20012;-84
2023/09/24 02:25:26;;;;;;;92.32;10.50;;;11.80;99.90;;;;;;6184159;23;20053;-84
2023/09/24 02:27:52;;;;;;;37.90;8.10;;;11.20;99.90;;;;;;6174584;23;20100;-84
2023/09/24 02:30:20;;;;;;;62.08;9.25;;;11.20;99.90;;;;;;6183941;23;20028;-84
2023/09/24 02:32:46;;;;;;;64.60;9.63;;;11.10;99.90;;;;;;6182715;23;20055;-84
2023/09/24 02:35:13;;;;;;;102.25;11.52;;;11.10;99.90;;;;;;6184175;23;20028;-84
2023/09/24 02:37:40;;;;;;;52.83;8.65;;;11.10;99.90;;;;;;6183615;23;20037;-84
2023/09/24 02:40:12;;;;;;;50.88;8.07;;;11.90;99.90;;;;;;6183572;23;20024;-85
2023/09/24 02:42:40;;;;;;;70.93;9.40;;;11.10;99.90;;;;;;6183701;23;20020;-84
2023/09/24 02:45:09;;;;;;;75.60;10.25;;;12.20;99.90;;;;;;6184280;23;20021;-84
2023/09/24 02:47:36;;;;;;;58.88;9.10;;;11.10;99.90;;;;;;6183225;23;20009;-84
2023/09/24 02:50:07;;;;;;;62.72;9.80;;;11.10;99.90;;;;;;6184421;23;20013;-84
2023/09/24 02:52:33;;;;;;;64.95;10.85;;;11.10;99.90;;;;;;6184162;23;20010;-84
2023/09/24 02:54:59;;;;;;;69.88;10.13;;;11.10;99.90;;;;;;6182976;23;20107;-85
2023/09/24 02:57:26;;;;;;;77.82;11.60;;;11.80;99.90;;;;;;6183684;23;20342;-84
2023/09/24 02:59:52;;;;;;;62.60;11.15;;;12.20;99.90;;;;;;6183466;23;20017;-84
2023/09/24 03:02:17;;;;;;;88.63;12.68;;;11.00;99.90;;;;;;6183251;23;20020;-84
2023/09/24 03:04:43;;;;;;;95.10;12.55;;;12.00;99.90;;;;;;6183229;23;20051;-84
2023/09/24 03:07:09;;;;;;;125.10;14.85;;;11.00;99.90;;;;;;6183716;23;20032;-84
2023/09/24 03:09:35;;;;;;;119.55;15.00;;;11.00;99.90;;;;;;6182047;23;20044;-84
2023/09/24 03:12:09;;;;;;;69.22;12.80;;;11.20;99.90;;;;;;6183696;23;20020;-85
2023/09/24 03:14:34;;;;;;;67.80;13.40;;;11.00;99.90;;;;;;6183567;23;20021;-84
2023/09/24 03:17:00;;;;;;;51.25;12.38;;;11.10;99.90;;;;;;6182860;23;20012;-84
2023/09/24 03:19:26;;;;;;;39.95;11.60;;;11.20;99.90;;;;;;6183217;23;20017;-84
2023/09/24 03:21:51;;;;;;;21.20;10.02;;;11.60;99.90;;;;;;6182121;23;20019;-84
2023/09/24 03:24:19;;;;;;;26.98;11.23;;;11.90;99.90;;;;;;6183726;23;20024;-84
2023/09/24 03:26:47;;;;;;;30.88;10.82;;;11.50;99.90;;;;;;6183611;23;20017;-84
2023/09/24 03:29:13;;;;;;;28.98;9.55;;;10.70;99.90;;;;;;6182818;23;20465;-84
2023/09/24 03:31:38;;;;;;;20.23;8.43;;;10.70;99.90;;;;;;6187180;23;20019;-84
2023/09/24 03:34:04;;;;;;;20.40;9.13;;;11.30;99.90;;;;;;6189431;23;20457;-85
2023/09/24 03:36:30;;;;;;;18.58;7.97;;;10.50;99.90;;;;;;6182518;23;20024;-85
2023/09/24 03:38:56;;;;;;;20.83;8.70;;;10.80;99.90;;;;;;6183098;23;20017;-84
2023/09/24 03:41:23;;;;;;;26.23;11.10;;;10.60;99.90;;;;;;6183584;23;20025;-84
2023/09/24 03:43:49;;;;;;;23.27;11.18;;;10.80;99.90;;;;;;6180825;23;20024;-84
2023/09/24 03:46:33;;;;;;;27.45;11.32;;;10.30;99.90;;;;;;6183715;23;20017;-85
2023/09/24 03:48:59;;;;;;;;;;;10.60;99.90;;;;;;6183886;23;20017;-84
2023/09/24 03:51:43;;;;;;;28.13;10.80;;;10.80;99.90;;;;;;6182324;23;19924;-84
2023/09/24 03:54:08;;;;;;;;;;;10.90;99.90;;;;;;6184164;23;20017;-84
2023/09/24 03:56:34;;;;;;;37.63;11.43;;;11.40;99.90;;;;;;6183626;23;19916;-84
2023/09/24 03:59:12;;;;;;;23.00;10.82;;;10.90;99.90;;;;;;6182193;23;20322;-84
2023/09/24 04:01:39;;;;;;;26.85;9.98;;;10.90;99.90;;;;;;6181999;23;20036;-84
2023/09/24 04:04:25;;;;;;;30.25;10.50;;;9.90;99.90;;;;;;6182140;23;20021;-84
2023/09/24 04:06:51;;;;;;;24.08;10.10;;;9.80;99.90;;;;;;6182126;23;20024;-84
2023/09/24 04:09:34;;;;;;;30.20;11.20;;;10.60;99.90;;;;;;6182897;23;20013;-84
2023/09/24 04:12:00;;;;;;;26.55;10.38;;;10.30;99.90;;;;;;6181941;23;20013;-84
2023/09/24 04:14:26;;;;;;;25.63;9.52;;;10.80;99.90;;;;;;6183240;23;20143;-84
2023/09/24 04:17:07;;;;;;;24.20;9.90;;;10.50;99.90;;;;;;6183053;23;20017;-84
2023/09/24 04:19:33;;;;;;;20.65;9.52;;;9.60;99.90;;;;;;6182536;23;20013;-84
2023/09/24 04:22:19;;;;;;;30.48;10.07;;;10.20;99.90;;;;;;6183288;23;20023;-84
2023/09/24 04:24:44;;;;;;;28.10;10.48;;;10.50;99.90;;;;;;6182751;23;20458;-84
2023/09/24 04:27:30;;;;;;;22.48;9.40;;;10.50;99.90;;;;;;6182328;23;20032;-84
2023/09/24 04:29:56;;;;;;;24.10;9.73;;;9.30;99.90;;;;;;6182984;23;20049;-84
2023/09/24 04:32:21;;;;;;;26.02;11.20;;;9.30;99.90;;;;;;6182210;23;20017;-84
2023/09/24 04:35:08;;;;;;;24.67;10.20;;;9.30;99.90;;;;;;6182785;23;20045;-84
2023/09/24 04:37:33;;;;;;;19.90;9.45;;;9.20;99.90;;;;;;6182892;23;20013;-85
2023/09/24 04:40:18;;;;;;;25.30;9.77;;;9.80;99.90;;;;;;6182092;23;20063;-84
2023/09/24 04:42:47;;;;;;;28.35;10.73;;;9.20;99.90;;;;;;6183139;23;20013;-84
2023/09/24 04:45:32;;;;;;;25.15;10.77;;;10.50;99.90;;;;;;6183146;23;20013;-85
2023/09/24 04:47:58;;;;;;;26.23;10.63;;;9.70;99.90;;;;;;6182051;23;20013;-85
2023/09/24 04:50:25;;;;;;;28.10;9.07;;;9.80;99.90;;;;;;6183479;23;20027;-84
2023/09/24 04:53:12;;;;;;;24.42;10.23;;;9.60;99.90;;;;;;6185229;23;20100;-84
2023/09/24 04:55:39;;;;;;;24.75;10.55;;;9.20;99.90;;;;;;6184809;23;20103;-84
2023/09/24 04:58:05;;;;;;;22.85;9.30;;;9.20;99.90;;;;;;6185811;23;20009;-84
2023/09/24 05:00:48;;;;;;;27.42;10.00;;;10.20;99.90;;;;;;6183995;23;20353;-84
2023/09/24 05:03:14;;;;;;;21.75;9.13;;;9.10;99.90;;;;;;6185270;23;20017;-84
2023/09/24 05:06:03;;;;;;;24.33;10.35;;;9.80;99.90;;;;;;6184660;23;20445;-84
2023/09/24 05:08:29;;;;;;;25.48;10.05;;;9.10;99.90;;;;;;6184067;23;20067;-84
2023/09/24 05:11:14;;;;;;;26.33;10.02;;;9.00;99.90;;;;;;6187493;23;20035;-84
2023/09/24 05:13:40;;;;;;;27.65;9.88;;;10.40;99.90;;;;;;6188992;23;20024;-84
2023/09/24 05:16:27;;;;;;;25.58;9.93;;;9.50;99.90;;;;;;6187083;23;20333;-84
2023/09/24 05:18:52;;;;;;;25.05;10.00;;;10.00;99.90;;;;;;6189639;23;20016;-84
2023/09/24 05:21:18;;;;;;;25.42;10.25;;;10.00;99.90;;;;;;6188729;23;20318;-85
2023/09/24 05:23:59;;;;;;;25.27;10.30;;;9.90;99.90;;;;;;6189398;23;20025;-84
2023/09/24 05:26:40;;;;;;;30.25;10.85;;;8.30;99.90;;;;;;6189866;23;20019;-84
2023/09/24 05:29:17;;;;;;;31.25;10.98;;;10.40;99.90;;;;;;6189129;23;20021;-84
2023/09/24 05:31:55;;;;;;;22.15;10.75;;;9.50;99.90;;;;;;6188797;23;20020;-84
2023/09/24 05:34:40;;;;;;;30.88;11.60;;;9.00;99.90;;;;;;6189754;23;20095;-84
2023/09/24 05:37:08;;;;;;;24.33;11.00;;;9.10;99.90;;;;;;6189209;23;20091;-84
2023/09/24 05:39:36;;;;;;;31.17;11.68;;;9.90;99.90;;;;;;6189291;23;20048;-84
2023/09/24 05:42:03;;;;;;;28.98;11.95;;;9.10;99.90;;;;;;6189691;23;20103;-84
2023/09/24 05:44:32;;;;;;;29.00;12.23;;;9.10;99.90;;;;;;6188814;23;20337;-84
2023/09/24 05:46:59;;;;;;;29.83;11.55;;;9.10;99.90;;;;;;6189413;23;20016;-84
2023/09/24 05:49:25;;;;;;;29.13;12.05;;;9.10;99.90;;;;;;6188845;23;20016;-85
2023/09/24 05:51:50;;;;;;;31.15;12.32;;;10.30;99.90;;;;;;6188963;23;20391;-84
2023/09/24 05:54:16;;;;;;;31.00;12.38;;;9.10;99.90;;;;;;6189942;23;20536;-84
2023/09/24 05:56:41;;;;;;;33.95;11.73;;;9.20;99.90;;;;;;6188715;23;20009;-84
2023/09/24 05:59:07;;;;;;;27.58;12.00;;;10.00;99.90;;;;;;6189748;23;20341;-85
2023/09/24 06:01:33;;;;;;;30.00;12.07;;;9.20;99.90;;;;;;6189277;23;20075;-84
2023/09/24 06:03:58;;;;;;;30.70;12.40;;;10.00;99.90;;;;;;6187899;23;20017;-84
2023/09/24 06:06:24;;;;;;;27.10;12.43;;;9.20;99.90;;;;;;6190154;23;20341;-85
2023/09/24 06:08:53;;;;;;;29.17;12.65;;;9.30;99.90;;;;;;6189942;23;20029;-84
2023/09/24 06:11:54;;;;;;;29.52;12.60;;;10.40;99.90;;;;;;6206908;23;20013;-84
2023/09/24 06:14:45;;;;;;;27.25;12.50;;;10.60;99.90;;;;;;6162301;23;20507;-85
2023/09/24 06:17:11;;;;;;;31.00;12.82;;;9.30;99.90;;;;;;6161258;23;20024;-85
2023/09/24 06:19:37;;;;;;;29.98;12.85;;;9.80;99.90;;;;;;6161991;23;20044;-84
2023/09/24 06:22:02;;;;;;;27.50;11.80;;;10.80;99.90;;;;;;6161010;23;20048;-84
2023/09/24 06:24:29;;;;;;;27.80;12.52;;;9.50;99.90;;;;;;6161241;23;20450;-84
2023/09/24 06:26:55;;;;;;;28.50;13.40;;;9.50;99.90;;;;;;6159250;23;20096;-84
2023/09/24 06:29:21;;;;;;;26.58;12.48;;;9.50;99.90;;;;;;6161504;23;20025;-84
2023/09/24 06:31:52;;;;;;;30.10;12.93;;;9.60;99.90;;;;;;6170574;23;20025;-85
2023/09/24 06:34:32;;;;;;;29.17;12.85;;;9.20;99.90;;;;;;6177637;23;20021;-84
2023/09/24 06:37:16;;;;;;;26.73;13.10;;;10.10;99.90;;;;;;6160699;23;20091;-84
2023/09/24 06:39:54;;;;;;;;;;;10.00;99.90;;;;;;6161351;23;20438;-85
2023/09/24 06:43:04;;;;;;;30.58;13.10;;;9.70;99.90;;;;;;6161237;23;20329;-85
2023/09/24 06:45:41;;;;;;;26.92;13.00;;;9.80;99.90;;;;;;6159667;23;20021;-84
2023/09/24 06:48:13;;;;;;;28.60;13.75;;;11.10;99.90;;;;;;6161210;23;20040;-84
2023/09/24 06:50:54;;;;;;;29.58;13.20;;;11.40;99.90;;;;;;6160142;23;20450;-84
2023/09/24 06:53:42;;;;;;;28.98;13.15;;;9.80;99.90;;;;;;6160314;23;20021;-88
2023/09/24 06:56:08;;;;;;;27.15;13.70;;;9.70;99.90;;;;;;6161178;23;20020;-83
2023/09/24 06:58:35;;;;;;;28.88;13.23;;;10.20;99.90;;;;;;6159719;23;20019;-84
2023/09/24 07:01:16;;;;;;;28.17;13.40;;;10.20;99.90;;;;;;6159413;23;20017;-84
2023/09/24 07:03:41;;;;;;;29.58;13.35;;;11.30;99.90;;;;;;6159196;23;20020;-82
2023/09/24 07:06:07;;;;;;;27.38;13.38;;;10.40;99.90;;;;;;6157105;23;20460;-82
2023/09/24 07:08:33;;;;;;;26.95;13.73;;;10.60;99.90;;;;;;6158768;23;20025;-83
2023/09/24 07:11:32;;;;;;;30.65;13.80;;;10.50;99.90;;;;;;6159030;23;20032;-83
2023/09/24 07:13:58;;;;;;;31.05;14.00;;;10.60;99.90;;;;;;6158543;23;20099;-82
2023/09/24 07:16:26;;;;;;;28.30;14.07;;;11.10;99.90;;;;;;6162034;23;20024;-82
2023/09/24 07:18:53;;;;;;;25.38;14.20;;;10.70;99.90;;;;;;6158565;23;20024;-82
2023/09/24 07:21:21;;;;;;;24.88;12.90;;;10.80;99.90;;;;;;6157914;23;20013;-82
2023/09/24 07:23:49;;;;;;;25.08;13.13;;;10.90;99.90;;;;;;6161350;23;20075;-85
2023/09/24 07:26:14;;;;;;;29.27;13.77;;;11.00;99.90;;;;;;6157727;23;20027;-82
2023/09/24 07:28:41;;;;;;;25.20;13.43;;;11.00;99.90;;;;;;6155494;23;20103;-83
2023/09/24 07:31:19;;;;;;;23.67;12.75;;;11.10;99.90;;;;;;6185156;23;20013;-84
2023/09/24 07:33:45;;;;;;;24.58;12.80;;;11.30;99.90;;;;;;6159938;23;20028;-85
2023/09/24 07:36:12;;;;;;;25.52;12.98;;;11.30;99.90;;;;;;6159523;23;20024;-84
2023/09/24 07:38:39;;;;;;;26.60;13.27;;;12.00;99.90;;;;;;6159929;23;20366;-84
2023/09/24 07:41:13;;;;;;;26.35;12.85;;;11.20;99.90;;;;;;6158628;23;20016;-83
2023/09/24 07:43:48;;;;;;;20.30;11.82;;;11.10;99.90;;;;;;6185350;23;20013;-83
2023/09/24 07:46:20;;;;;;;22.73;13.18;;;11.30;99.90;;;;;;6158954;23;20019;-83
2023/09/24 07:48:48;;;;;;;22.20;12.68;;;11.40;99.90;;;;;;6157796;23;20031;-83
2023/09/24 07:51:16;;;;;;;22.83;11.88;;;12.30;99.90;;;;;;6156981;23;20017;-83
2023/09/24 07:53:43;;;;;;;20.65;12.00;;;12.30;99.90;;;;;;6157317;23;20017;-83
2023/09/24 07:56:11;;;;;;;21.20;11.52;;;12.40;99.90;;;;;;6184357;23;20017;-83
2023/09/24 07:58:39;;;;;;;19.85;11.73;;;12.20;99.90;;;;;;6158298;23;20020;-83
2023/09/24 08:01:10;;;;;;;21.23;12.10;;;11.60;99.90;;;;;;6158216;23;20013;-83
2023/09/24 08:03:37;;;;;;;21.35;12.27;;;11.70;99.90;;;;;;6157558;23;20017;-83
2023/09/24 08:06:04;;;;;;;20.08;10.93;;;11.90;99.90;;;;;;6159006;23;20009;-83
2023/09/24 08:08:30;;;;;;;19.05;10.52;;;11.70;99.90;;;;;;6158622;23;20028;-83
2023/09/24 08:10:57;;;;;;;18.65;10.32;;;11.80;99.90;;;;;;6157808;23;20009;-83
2023/09/24 08:13:23;;;;;;;18.23;10.00;;;13.10;99.90;;;;;;6157992;23;20025;-81
2023/09/24 08:15:49;;;;;;;19.92;10.90;;;12.30;99.90;;;;;;6157858;23;20020;-82
2023/09/24 08:18:16;;;;;;;20.27;10.52;;;13.10;99.90;;;;;;6156893;23;20095;-82
2023/09/24 08:20:42;;;;;;;16.55;9.13;;;12.20;99.90;;;;;;6157998;23;20063;-82
2023/09/24 08:23:08;;;;;;;17.08;9.10;;;12.20;99.90;;;;;;6158790;23;20017;-82
2023/09/24 08:25:35;;;;;;;19.98;9.07;;;13.30;99.90;;;;;;6157415;23;20028;-83
2023/09/24 08:28:02;;;;;;;16.67;8.90;;;12.30;99.90;;;;;;6160400;23;20021;-82
2023/09/24 08:30:30;;;;;;;16.05;8.48;;;12.30;99.90;;;;;;6160556;23;20068;-82
2023/09/24 08:32:56;;;;;;;18.90;8.52;;;12.30;99.90;;;;;;6159023;23;20017;-82
2023/09/24 08:35:22;;;;;;;21.52;8.93;;;12.40;99.90;;;;;;6160860;23;20017;-83
2023/09/24 08:37:48;;;;;;;16.38;7.95;;;13.40;99.90;;;;;;6160236;23;20013;-83
2023/09/24 08:40:15;;;;;;;19.63;8.05;;;12.70;99.90;;;;;;6160285;23;20052;-84
2023/09/24 08:42:47;;;;;;;17.60;7.63;;;12.80;99.90;;;;;;6160123;23;20017;-83
2023/09/24 08:45:14;;;;;;;17.23;8.02;;;13.90;99.90;;;;;;6159649;23;20466;-84
2023/09/24 08:47:41;;;;;;;17.20;7.22;;;13.00;99.90;;;;;;6160061;23;20017;-84
2023/09/24 08:50:08;;;;;;;16.08;6.85;;;13.00;99.90;;;;;;6159529;23;20017;-84
2023/09/24 08:52:42;;;;;;;14.55;6.82;;;13.10;99.90;;;;;;6158541;23;20069;-84
2023/09/24 08:55:11;;;;;;;17.17;6.25;;;13.20;99.90;;;;;;6160216;23;20017;-84
2023/09/24 08:57:38;;;;;;;15.65;6.28;;;13.50;99.90;;;;;;6186316;23;20079;-84
2023/09/24 09:00:11;;;;;;;13.52;5.35;;;13.40;99.90;;;;;;6159385;23;20053;-84
2023/09/24 09:02:44;;;;;;;14.40;6.28;;;13.40;99.90;;;;;;6160546;23;20051;-84
2023/09/24 09:05:25;;;;;;;16.20;6.10;;;13.40;99.90;;;;;;6181689;23;20013;-84
2023/09/24 09:07:56;;;;;;;13.60;5.38;;;13.60;99.90;;;;;;6159110;23;20013;-83
2023/09/24 09:10:27;;;;;;;14.23;5.25;;;13.70;99.90;;;;;;6160109;23;20027;-83
2023/09/24 09:13:11;;;;;;;14.07;5.30;;;13.70;99.90;;;;;;6180896;23;20017;-86
2023/09/24 09:15:42;;;;;;;13.50;5.20;;;13.80;99.90;;;;;;6184122;23;20045;-83
2023/09/24 09:18:24;;;;;;;10.93;4.68;;;13.90;99.90;;;;;;6184349;23;20100;-83
2023/09/24 09:20:51;;;;;;;11.60;4.90;;;14.90;99.90;;;;;;6183701;23;20096;-83
2023/09/24 09:23:33;;;;;;;14.63;4.88;;;14.00;99.90;;;;;;6184747;23;20476;-83
2023/09/24 09:25:59;;;;;;;12.73;4.65;;;14.10;99.90;;;;;;6185235;23;20086;-82
2023/09/24 09:28:26;;;;;;;14.77;4.50;;;14.30;99.90;;;;;;6183957;23;20152;-82
2023/09/24 09:30:59;;;;;;;10.70;4.38;;;14.40;99.90;;;;;;6184263;23;20014;-83
2023/09/24 09:33:27;;;;;;;10.93;4.03;;;14.50;99.90;;;;;;6194749;23;20020;-83
2023/09/24 09:35:54;;;;;;;10.25;3.58;;;15.60;99.90;;;;;;6194610;23;20069;-82
2023/09/24 09:38:20;;;;;;;10.18;3.13;;;15.60;99.90;;;;;;6184683;23;20097;-82
2023/09/24 09:40:50;;;;;;;15.52;3.90;;;14.80;99.90;;;;;;6184258;23;20013;-82
2023/09/24 09:43:20;;;;;;;14.02;4.32;;;14.80;99.90;;;;;;6184270;23;20020;-82
2023/09/24 09:45:47;;;;;;;9.43;3.05;;;14.90;99.90;;;;;;6184705;23;20037;-82
2023/09/24 09:48:15;;;;;;;10.23;3.03;;;15.00;99.90;;;;;;6184630;23;20013;-82
2023/09/24 09:50:45;;;;;;;9.80;2.92;;;15.10;99.90;;;;;;6182938;23;20013;-82
2023/09/24 09:53:17;;;;;;;9.23;2.75;;;15.20;99.90;;;;;;6184359;23;20005;-82
2023/09/24 09:55:46;;;;;;;9.63;2.90;;;15.30;99.90;;;;;;6184427;23;20017;-82
2023/09/24 09:58:12;;;;;;;9.90;3.08;;;15.40;99.90;;;;;;6186871;23;20036;-82
2023/09/24 10:00:40;;;;;;;10.70;3.28;;;15.50;99.90;;;;;;6184982;23;20067;-82
2023/09/24 10:03:06;;;;;;;9.48;3.03;;;15.50;99.90;;;;;;6184814;23;20013;-82
2023/09/24 10:05:33;;;;;;;9.65;3.10;;;15.50;99.90;;;;;;6186218;23;20052;-82
2023/09/24 10:07:58;;;;;;;9.30;3.10;;;16.30;99.90;;;;;;6184801;23;20013;-82
2023/09/24 10:10:30;;;;;;;8.98;2.95;;;16.00;99.90;;;;;;6184606;23;20020;-82
2023/09/24 10:13:02;;;;;;;12.80;3.42;;;15.70;99.90;;;;;;6184611;23;20533;-82
2023/09/24 10:15:30;;;;;;;9.02;2.85;;;15.80;99.90;;;;;;6184780;23;20048;-82
2023/09/24 10:18:19;;;;;;;9.73;3.05;;;16.50;99.90;;;;;;6183314;23;20020;-82
2023/09/24 10:21:06;;;;;;;8.88;2.90;;;16.00;99.90;;;;;;6169164;23;20078;-82
2023/09/24 10:23:33;;;;;;;8.35;3.00;;;16.10;99.90;;;;;;6184967;23;20021;-82
2023/09/24 10:26:00;;;;;;;9.00;2.72;;;16.20;99.90;;;;;;6184146;23;20537;-82
2023/09/24 10:28:48;;;;;;;8.07;2.58;;;16.30;99.90;;;;;;6184910;23;20092;-82
2023/09/24 10:31:16;;;;;;;8.40;2.38;;;16.40;99.90;;;;;;6184630;23;20021;-83
2023/09/24 10:33:55;;;;;;;9.55;2.72;;;16.40;99.90;;;;;;6184141;23;20017;-82
2023/09/24 10:36:28;;;;;;;9.20;2.70;;;16.50;99.90;;;;;;6186325;23;20125;-82
2023/09/24 10:39:10;;;;;;;11.68;3.17;;;16.60;99.90;;;;;;6182982;23;20083;-82
2023/09/24 10:41:56;;;;;;;8.18;2.35;;;16.70;99.90;;;;;;6184011;23;20013;-82
2023/09/24 10:44:26;;;;;;;8.75;2.20;;;16.80;99.90;;;;;;6184328;23;20133;-82
2023/09/24 10:46:52;;;;;;;9.13;2.60;;;16.90;99.90;;;;;;6183315;23;20406;-82
2023/09/24 10:49:24;;;;;;;7.82;2.40;;;17.00;99.90;;;;;;6181584;23;20017;-81
2023/09/24 10:51:57;;;;;;;10.10;2.55;;;17.10;99.90;;;;;;6180004;23;20013;-84
2023/09/24 10:54:27;;;;;;;6.18;2.20;;;17.30;99.90;;;;;;6180848;23;20096;-84
2023/09/24 10:56:52;;;;;;;9.73;2.40;;;17.20;99.90;;;;;;6180555;23;20466;-84
2023/09/24 10:59:34;;;;;;;8.32;2.42;;;17.40;99.90;;;;;;6181238;23;20013;-84
2023/09/24 11:02:16;;;;;;;8.15;2.38;;;17.40;99.90;;;;;;6182777;23;20445;-84
2023/09/24 11:04:42;;;;;;;10.88;2.20;;;17.60;99.90;;;;;;6181935;23;20099;-83
2023/09/24 11:07:08;;;;;;;9.23;2.22;;;17.70;99.90;;;;;;6183020;23;20040;-84
2023/09/24 11:09:34;;;;;;;8.77;2.10;;;17.90;99.90;;;;;;6183474;23;20474;-84
2023/09/24 11:12:09;;;;;;;7.28;2.30;;;17.80;99.90;;;;;;6182864;23;20024;-89
2023/09/24 11:14:34;;;;;;;10.05;2.45;;;18.00;99.90;;;;;;6182776;23;20021;-83
2023/09/24 11:17:01;;;;;;;7.93;2.08;;;18.10;99.90;;;;;;6183830;23;20013;-83
2023/09/24 11:19:47;;;;;;;7.10;2.22;;;18.20;99.90;;;;;;6183637;23;20066;-83
2023/09/24 11:22:16;;;;;;;8.43;1.90;;;18.20;99.90;;;;;;6182954;23;20088;-83
2023/09/24 11:24:42;;;;;;;7.63;2.10;;;18.50;99.90;;;;;;6183194;23;20017;-83
2023/09/24 11:27:07;;;;;;;5.70;1.85;;;18.60;99.90;;;;;;6182411;23;20350;-82
2023/09/24 11:29:33;;;;;;;7.18;1.98;;;18.80;99.90;;;;;;6182818;23;20454;-82
2023/09/24 11:31:59;;;;;;;5.60;1.83;;;18.80;99.90;;;;;;6182917;23;20028;-83
2023/09/24 11:34:25;;;;;;;8.95;2.20;;;18.90;99.90;;;;;;6182171;23;20104;-82
2023/09/24 11:36:55;;;;;;;8.82;2.10;;;18.80;99.90;;;;;;6182997;23;20445;-84
2023/09/24 11:39:22;;;;;;;9.30;3.28;;;18.70;99.90;;;;;;6182660;23;20533;-83
2023/09/24 11:41:47;;;;;;;13.07;4.07;;;18.90;99.90;;;;;;6181828;23;20017;-81
2023/09/24 11:44:13;;;;;;;7.55;2.13;;;18.90;99.90;;;;;;6184547;23;20047;-81
2023/09/24 11:46:40;;;;;;;6.85;1.90;;;19.00;99.90;;;;;;6181891;23;20017;-81
2023/09/24 11:49:06;;;;;;;7.72;2.10;;;19.20;99.90;;;;;;6181941;23;20013;-81
2023/09/24 11:51:32;;;;;;;8.38;2.20;;;19.30;99.90;;;;;;6181151;23;20013;-81
2023/09/24 11:53:59;;;;;;;9.23;2.15;;;19.10;99.90;;;;;;6181878;23;20450;-81
2023/09/24 11:56:25;;;;;;;7.80;2.00;;;19.20;99.90;;;;;;6181712;23;20354;-80
2023/09/24 11:58:51;;;;;;;6.93;2.10;;;19.10;99.90;;;;;;6182347;23;20461;-81
2023/09/24 12:01:17;;;;;;;7.68;2.10;;;19.10;99.90;;;;;;6182173;23;20021;-84
2023/09/24 12:03:42;;;;;;;8.23;1.90;;;19.30;99.90;;;;;;6180994;23;20024;-81
2023/09/24 12:06:08;;;;;;;8.10;2.00;;;19.50;99.90;;;;;;6182974;23;20013;-81
2023/09/24 12:08:35;;;;;;;7.45;2.13;;;19.70;99.90;;;;;;6182850;23;20025;-80
2023/09/24 12:11:01;;;;;;;8.85;1.95;;;19.70;99.90;;;;;;6184983;23;20016;-82
2023/09/24 12:13:27;;;;;;;6.38;2.00;;;19.70;99.90;;;;;;6187325;23;20354;-81
2023/09/24 12:15:52;;;;;;;6.68;1.98;;;19.60;99.90;;;;;;6187906;23;20020;-80
2023/09/24 12:18:18;;;;;;;5.72;1.85;;;19.80;99.90;;;;;;6187243;23;20016;-80
2023/09/24 12:20:44;;;;;;;7.25;1.80;;;19.80;99.90;;;;;;6187962;23;20028;-80
2023/09/24 12:23:11;;;;;;;8.55;1.90;;;19.90;99.90;;;;;;6188407;23;20013;-81
2023/09/24 12:25:39;;;;;;;7.07;2.00;;;19.80;99.90;;;;;;6212062;23;20449;-80
2023/09/24 12:28:07;;;;;;;7.43;2.17;;;19.80;99.90;;;;;;6214952;23;20016;-81
2023/09/24 12:30:37;;;;;;;7.22;2.08;;;20.10;99.90;;;;;;6187129;23;20016;-81
2023/09/24 12:33:03;;;;;;;6.13;1.90;;;20.00;99.90;;;;;;6188363;23;20016;-80
2023/09/24 12:35:29;;;;;;;6.25;2.10;;;20.10;99.90;;;;;;6215643;23;20017;-80
2023/09/24 12:37:55;;;;;;;6.50;1.90;;;20.00;99.90;;;;;;6186688;23;20103;-80
2023/09/24 12:40:24;;;;;;;7.78;2.15;;;19.90;99.90;;;;;;6188106;23;20013;-81
2023/09/24 12:42:50;;;;;;;6.50;1.85;;;20.00;99.90;;;;;;6187417;23;20139;-80
2023/09/24 12:45:16;;;;;;;5.95;1.73;;;20.20;99.90;;;;;;6214342;23;20459;-80
2023/09/24 12:47:42;;;;;;;5.47;1.70;;;20.20;99.90;;;;;;6186974;23;20025;-81
2023/09/24 12:50:10;;;;;;;7.25;1.90;;;20.30;99.90;;;;;;6187422;23;20066;-82
2023/09/24 12:52:38;;;;;;;6.22;1.70;;;20.40;99.90;;;;;;6186744;23;20023;-81
2023/09/24 12:55:07;;;;;;;8.70;2.20;;;20.30;99.90;;;;;;6185281;23;20359;-81